Time;durP1;ratioP1;P1;durP2;ratioP2;P2;SDS_P1;SDS_P2;PMS_P1;PMS_P2;Temp;Humidity;BMP_temperature;BMP_pressure;BME280_temperature;BME280_humidity;BME280_pressure;Samples;Min_cycle;Max_cycle;Signal;HPM_P1;HPM_P2
2022/01/04 00:01:04;;;;;;;;;;;;;;;6.36;100.00;99867.44;5021089;28;20029;-72
2022/01/04 00:03:29;;;;;;;;;;;;;;;6.34;100.00;99865.94;5021308;28;19917;-73
2022/01/04 00:05:55;;;;;;;;;;;;;;;6.36;100.00;99870.06;5018194;28;20030;-73
2022/01/04 00:08:20;;;;;;;;;;;;;;;6.43;100.00;99865.94;5023427;28;19917;-73
2022/01/04 00:10:46;;;;;;;;;;;;;;;6.50;100.00;99855.78;5001341;28;19917;-73
2022/01/04 00:13:23;;;;;;;;;;;;;;;6.52;100.00;99848.63;5015997;28;19917;-72
2022/01/04 00:15:49;;;;;;;;;;;;;;;6.52;100.00;99853.03;5006375;28;19920;-73
2022/01/04 00:18:16;;;;;;;;;;;;;;;6.47;100.00;99858.66;5035557;28;19997;-72
2022/01/04 00:20:41;;;;;;;;;;;;;;;6.44;100.00;99848.50;5017569;28;20410;-73
2022/01/04 00:23:07;;;;;;;;;;;;;;;6.46;100.00;99850.97;5014424;28;20050;-72
2022/01/04 00:25:32;;;;;;;;;;;;;;;6.56;100.00;99841.34;5018586;28;19920;-72
2022/01/04 00:27:58;;;;;;;;;;;;;;;6.51;100.00;99839.16;5011967;28;19917;-74
2022/01/04 00:30:28;;;;;;;;;;;;;;;6.52;100.00;99834.78;5000470;28;19920;-72
2022/01/04 00:32:54;;;;;;;;;;;;;;;6.51;100.00;99827.94;4981245;28;19928;-72
2022/01/04 00:35:19;;;;;;;;;;;;;;;6.48;100.00;99834.25;5018335;28;19916;-72
2022/01/04 00:37:45;;;;;;;;;;;;;;;6.39;100.00;99829.91;4983883;28;20350;-73
2022/01/04 00:40:10;;;;;;;;;;;;;;;6.39;100.00;99824.69;5014811;28;19920;-73
2022/01/04 00:42:36;;;;;;;;;;;;;;;6.48;100.00;99823.84;5023274;28;20341;-72
2022/01/04 00:45:02;;;;;;;;;;;;;;;6.47;100.00;99810.94;5030169;28;19917;-73
2022/01/04 00:47:44;;;;;;;;;;;;;;;6.48;100.00;99807.34;5004118;28;20359;-73
2022/01/04 00:50:09;;;;;;;;;;;;;;;6.41;100.00;99813.16;4993941;28;19920;-72
2022/01/04 00:52:35;;;;;;;;;;;;;;;6.37;100.00;99803.97;5017706;28;19928;-73
2022/01/04 00:55:00;;;;;;;;;;;;;;;6.39;100.00;99801.25;5016016;28;20113;-73
2022/01/04 00:57:26;;;;;;;;;;;;;;;6.38;100.00;99799.59;5013544;28;19924;-73
2022/01/04 00:59:51;;;;;;;;;;;;;;;6.34;100.00;99793.84;5016513;28;19913;-73
2022/01/04 01:02:17;;;;;;;;;;;;;;;6.31;100.00;99788.94;5015877;28;19917;-75
2022/01/04 01:04:42;;;;;;;;;;;;;;;6.23;100.00;99781.00;5016815;28;20311;-72
2022/01/04 01:07:08;;;;;;;;;;;;;;;6.22;100.00;99772.38;5020018;28;19917;-73
2022/01/04 01:09:40;;;;;;;;;;;;;;;6.24;100.00;99778.25;5043555;28;19921;-71
2022/01/04 01:12:06;;;;;;;;;;;;;;;6.30;100.00;99779.47;5019544;28;19917;-74
2022/01/04 01:14:32;;;;;;;;;;;;;;;6.32;100.00;99774.13;5016653;28;19916;-72
2022/01/04 01:16:58;;;;;;;;;;;;;;;6.35;100.00;99764.25;4995087;28;19932;-73
2022/01/04 01:19:24;;;;;;;;;;;;;;;6.36;100.00;99758.03;5009266;28;20004;-73
2022/01/04 01:21:49;;;;;;;;;;;;;;;6.38;100.00;99763.94;4999048;28;20024;-72
2022/01/04 01:24:15;;;;;;;;;;;;;;;6.35;100.00;99758.22;5011839;28;20260;-72
2022/01/04 01:26:40;;;;;;;;;;;;;;;6.38;100.00;99757.91;5004520;28;19932;-71
2022/01/04 01:29:06;;;;;;;;;;;;;;;6.41;100.00;99753.22;5014126;28;19979;-72
2022/01/04 01:31:31;;;;;;;;;;;;;;;6.40;100.00;99751.59;5015170;28;19983;-72
2022/01/04 01:33:57;;;;;;;;;;;;;;;6.43;100.00;99746.09;5021514;28;20367;-70
2022/01/04 01:36:22;;;;;;;;;;;;;;;6.45;100.00;99751.16;5016452;28;20026;-71
2022/01/04 01:38:48;;;;;;;;;;;;;;;6.48;100.00;99750.88;5005245;28;19965;-72
2022/01/04 01:41:13;;;;;;;;;;;;;;;6.44;100.00;99741.69;5006440;28;19918;-71
2022/01/04 01:43:39;;;;;;;;;;;;;;;6.47;100.00;99744.03;5005151;28;19928;-72
2022/01/04 01:46:04;;;;;;;;;;;;;;;6.51;100.00;99734.94;5016254;28;19917;-70
2022/01/04 01:48:30;;;;;;;;;;;;;;;6.52;100.00;99730.59;4983034;28;19921;-71
2022/01/04 01:50:56;;;;;;;;;;;;;;;6.48;100.00;99724.84;5022780;28;20286;-71
2022/01/04 01:53:21;;;;;;;;;;;;;;;6.49;100.00;99725.66;4985616;28;19943;-73
2022/01/04 01:55:47;;;;;;;;;;;;;;;6.49;100.00;99720.44;5021138;28;20000;-73
2022/01/04 01:58:15;;;;;;;;;;;;;;;6.54;100.00;99720.84;4996967;28;19970;-72
2022/01/04 02:00:41;;;;;;;;;;;;;;;6.56;100.00;99717.09;4997263;28;19924;-72
2022/01/04 02:03:06;;;;;;;;;;;;;;;6.49;100.00;99718.66;5014685;28;19917;-71
2022/01/04 02:05:32;;;;;;;;;;;;;;;6.54;100.00;99713.81;5026626;28;19939;-73
2022/01/04 02:07:59;;;;;;;;;;;;;;;6.50;100.00;99707.28;4997024;28;19917;-73
2022/01/04 02:10:24;;;;;;;;;;;;;;;6.52;100.00;99704.53;5019149;28;19948;-72
2022/01/04 02:12:50;;;;;;;;;;;;;;;6.54;100.00;99703.41;5007949;28;20019;-72
2022/01/04 02:15:17;;;;;;;;;;;;;;;6.53;100.00;99699.16;5013565;28;20483;-72
2022/01/04 02:17:42;;;;;;;;;;;;;;;6.51;100.00;99695.06;5020638;28;20335;-71
2022/01/04 02:20:08;;;;;;;;;;;;;;;6.49;100.00;99700.41;5017329;28;19956;-73
2022/01/04 02:22:34;;;;;;;;;;;;;;;6.53;100.00;99693.94;5007172;28;20663;-71
2022/01/04 02:25:00;;;;;;;;;;;;;;;6.53;100.00;99687.91;5032926;28;19917;-72
2022/01/04 02:27:26;;;;;;;;;;;;;;;6.50;100.00;99685.59;4990484;28;19956;-73
2022/01/04 02:29:51;;;;;;;;;;;;;;;6.50;100.00;99681.22;5001217;28;19952;-73
2022/01/04 02:32:17;;;;;;;;;;;;;;;6.56;100.00;99675.41;4994258;28;20020;-71
2022/01/04 02:34:50;;;;;;;;;;;;;;;6.53;100.00;99662.69;5015294;28;19917;-71
2022/01/04 02:37:20;;;;;;;;;;;;;;;6.62;100.00;99658.38;5013036;28;19924;-71
2022/01/04 02:39:47;;;;;;;;;;;;;;;6.60;100.00;99647.28;5020636;28;19949;-70
2022/01/04 02:42:15;;;;;;;;;;;;;;;6.57;100.00;99656.22;5012378;28;19917;-70
2022/01/04 02:44:41;;;;;;;;;;;;;;;6.54;100.00;99653.09;4983068;28;20297;-70
2022/01/04 02:47:07;;;;;;;;;;;;;;;6.52;100.00;99647.22;5022242;28;20004;-71
2022/01/04 02:49:33;;;;;;;;;;;;;;;6.53;100.00;99641.03;5015775;28;19960;-71
2022/01/04 02:51:59;;;;;;;;;;;;;;;6.53;100.00;99641.84;4994188;28;20268;-71
2022/01/04 02:54:24;;;;;;;;;;;;;;;6.43;100.00;99641.09;5009188;28;19924;-72
2022/01/04 02:56:50;;;;;;;;;;;;;;;6.49;100.00;99634.47;5011810;28;19917;-72
2022/01/04 02:59:16;;;;;;;;;;;;;;;6.43;100.00;99628.88;4987256;28;19966;-71
2022/01/04 03:01:41;;;;;;;;;;;;;;;6.40;100.00;99633.56;5005574;28;19916;-72
2022/01/04 03:04:08;;;;;;;;;;;;;;;6.35;100.00;99628.00;5020796;28;20795;-72
2022/01/04 03:06:34;;;;;;;;;;;;;;;6.41;100.00;99615.19;5009527;28;20055;-73
2022/01/04 03:08:59;;;;;;;;;;;;;;;6.40;100.00;99607.50;5015131;28;19917;-71
2022/01/04 03:11:25;;;;;;;;;;;;;;;6.40;100.00;99612.72;5035932;28;19921;-71
2022/01/04 03:13:51;;;;;;;;;;;;;;;6.32;100.00;99610.84;5012339;28;19960;-72
2022/01/04 03:16:16;;;;;;;;;;;;;;;6.32;100.00;99605.63;5018064;28;20027;-71
2022/01/04 03:19:02;;;;;;;;;;;;;;;6.29;100.00;99600.75;5017426;28;19917;-72
2022/01/04 03:21:27;;;;;;;;;;;;;;;6.17;100.00;99600.09;5016565;28;19921;-72
2022/01/04 03:23:53;;;;;;;;;;;;;;;6.12;100.00;99594.53;5021101;28;19913;-72
2022/01/04 03:26:18;;;;;;;;;;;;;;;6.19;100.00;99592.16;5019146;28;19921;-72
2022/01/04 03:28:44;;;;;;;;;;;;;;;6.06;100.00;99581.28;5010802;28;19917;-72
2022/01/04 03:31:11;;;;;;;;;;;;;;;6.02;100.00;99572.94;5009503;28;20027;-71
2022/01/04 03:33:37;;;;;;;;;;;;;;;6.07;100.00;99570.72;5019110;28;20397;-71
2022/01/04 03:36:03;;;;;;;;;;;;;;;5.95;100.00;99569.22;5024251;28;20002;-72
2022/01/04 03:38:29;;;;;;;;;;;;;;;5.87;100.00;99567.34;5026804;28;20305;-71
2022/01/04 03:40:55;;;;;;;;;;;;;;;5.98;100.00;99571.59;5020775;28;20008;-72
2022/01/04 03:43:21;;;;;;;;;;;;;;;6.02;100.00;99570.31;4999440;28;19924;-71
2022/01/04 03:45:47;;;;;;;;;;;;;;;6.08;100.00;99569.75;5010176;28;19917;-72
2022/01/04 03:48:13;;;;;;;;;;;;;;;6.19;100.00;99568.72;5011961;28;19917;-73
2022/01/04 03:50:40;;;;;;;;;;;;;;;6.20;100.00;99567.78;5016250;28;19932;-71
2022/01/04 03:53:05;;;;;;;;;;;;;;;6.17;100.00;99553.25;5018216;28;19917;-72
2022/01/04 03:55:34;;;;;;;;;;;;;;;6.15;100.00;99555.16;4999280;28;20373;-70
2022/01/04 03:58:02;;;;;;;;;;;;;;;6.13;100.00;99538.06;5010288;28;19928;-73
2022/01/04 04:00:27;;;;;;;;;;;;;;;6.09;100.00;99540.16;5038909;28;19913;-71
2022/01/04 04:02:53;;;;;;;;;;;;;;;6.12;100.00;99546.84;5027552;28;19967;-72
2022/01/04 04:05:18;;;;;;;;;;;;;;;6.16;100.00;99530.78;5029785;28;19919;-71
2022/01/04 04:07:44;;;;;;;;;;;;;;;6.18;100.00;99530.66;4994983;28;20263;-72
2022/01/04 04:10:09;;;;;;;;;;;;;;;6.16;100.00;99520.38;5004822;28;19921;-72
2022/01/04 04:12:35;;;;;;;;;;;;;;;6.17;100.00;99524.59;5029038;28;20382;-73
2022/01/04 04:15:04;;;;;;;;;;;;;;;6.15;100.00;99530.94;4983012;28;19925;-72
2022/01/04 04:17:33;;;;;;;;;;;;;;;6.22;100.00;99518.97;5021759;28;19960;-73
2022/01/04 04:19:58;;;;;;;;;;;;;;;6.21;100.00;99519.91;5009325;28;20561;-72
2022/01/04 04:22:24;;;;;;;;;;;;;;;6.18;100.00;99515.84;5012229;28;19992;-72
2022/01/04 04:24:49;;;;;;;;;;;;;;;6.23;100.00;99508.41;4995014;28;19928;-72
2022/01/04 04:27:15;;;;;;;;;;;;;;;6.32;100.00;99505.88;5018704;28;19913;-72
2022/01/04 04:29:40;;;;;;;;;;;;;;;6.35;100.00;99501.19;5011657;28;19917;-73
2022/01/04 04:32:06;;;;;;;;;;;;;;;6.38;100.00;99494.84;5019344;28;19921;-72
2022/01/04 04:34:32;;;;;;;;;;;;;;;6.40;100.00;99485.09;5023943;28;20378;-72
2022/01/04 04:36:58;;;;;;;;;;;;;;;6.37;100.00;99477.59;5021011;28;19963;-72
2022/01/04 04:39:23;;;;;;;;;;;;;;;6.39;100.00;99475.66;5015802;28;19966;-72
2022/01/04 04:41:49;;;;;;;;;;;;;;;6.37;100.00;99470.59;4981012;28;19921;-73
2022/01/04 04:44:15;;;;;;;;;;;;;;;6.38;100.00;99474.00;5020857;28;20398;-72
2022/01/04 04:46:41;;;;;;;;;;;;;;;6.35;100.00;99476.94;5005885;28;19917;-72
2022/01/04 04:49:06;;;;;;;;;;;;;;;6.37;100.00;99469.78;5018969;28;20390;-72
2022/01/04 04:51:33;;;;;;;;;;;;;;;6.33;100.00;99468.41;5025276;28;19932;-73
2022/01/04 04:53:58;;;;;;;;;;;;;;;6.29;100.00;99462.72;5013425;28;19931;-71
2022/01/04 04:56:24;;;;;;;;;;;;;;;6.30;100.00;99466.94;5011327;28;19913;-72
2022/01/04 04:58:50;;;;;;;;;;;;;;;6.34;100.00;99467.47;5018340;28;19928;-72
2022/01/04 05:01:15;;;;;;;;;;;;;;;6.35;100.00;99461.31;5017098;28;19924;-72
2022/01/04 05:03:41;;;;;;;;;;;;;;;6.42;100.00;99457.94;4991528;28;20752;-73
2022/01/04 05:06:06;;;;;;;;;;;;;;;6.45;100.00;99446.41;5013072;28;19916;-72
2022/01/04 05:08:32;;;;;;;;;;;;;;;6.50;100.00;99445.91;5003140;28;19921;-72
2022/01/04 05:10:57;;;;;;;;;;;;;;;6.47;100.00;99454.06;5003470;28;19923;-73
2022/01/04 05:13:23;;;;;;;;;;;;;;;6.43;100.00;99443.13;5022186;28;19924;-72
2022/01/04 05:15:49;;;;;;;;;;;;;;;6.42;100.00;99444.91;5023985;28;19917;-72
2022/01/04 05:18:15;;;;;;;;;;;;;;;6.44;100.00;99439.53;5021385;28;19920;-72
2022/01/04 05:20:40;;;;;;;;;;;;;;;6.44;100.00;99431.72;4995130;28;19917;-71
2022/01/04 05:23:06;;;;;;;;;;;;;;;6.40;100.00;99430.38;5014220;28;19996;-71
2022/01/04 05:25:31;;;;;;;;;;;;;;;6.42;100.00;99444.91;5018015;28;19917;-71
2022/01/04 05:27:57;;;;;;;;;;;;;;;6.40;100.00;99433.00;5008410;28;20353;-72
2022/01/04 05:30:23;;;;;;;;;;;;;;;6.39;100.00;99429.59;5022878;28;20070;-72
2022/01/04 05:32:48;;;;;;;;;;;;;;;6.39;100.00;99415.75;5000208;28;19968;-72
2022/01/04 05:35:13;;;;;;;;;;;;;;;6.42;100.00;99408.44;5000631;28;19917;-72
2022/01/04 05:37:39;;;;;;;;;;;;;;;6.37;100.00;99409.88;5002089;28;19971;-71
2022/01/04 05:40:05;;;;;;;;;;;;;;;6.35;100.00;99402.22;4998609;28;19913;-72
2022/01/04 05:42:30;;;;;;;;;;;;;;;6.23;100.00;99409.47;4991210;28;19921;-72
2022/01/04 05:44:56;;;;;;;;;;;;;;;6.22;100.00;99400.00;5019222;28;19913;-73
2022/01/04 05:47:24;;;;;;;;;;;;;;;6.26;100.00;99403.13;5006094;28;20961;-72
2022/01/04 05:49:51;;;;;;;;;;;;;;;6.21;100.00;99402.75;5016701;28;20366;-72
2022/01/04 05:52:16;;;;;;;;;;;;;;;6.09;100.00;99404.78;5016171;28;19927;-71
2022/01/04 05:54:43;;;;;;;;;;;;;;;6.13;100.00;99411.31;4997803;28;19913;-71
2022/01/04 05:57:09;;;;;;;;;;;;;;;6.13;100.00;99400.91;5003097;28;19917;-71
2022/01/04 05:59:34;;;;;;;;;;;;;;;6.19;100.00;99402.09;5021078;28;19967;-73
2022/01/04 06:02:00;;;;;;;;;;;;;;;6.20;100.00;99406.34;5023725;28;19956;-72
2022/01/04 06:04:25;;;;;;;;;;;;;;;6.15;100.00;99403.34;5035347;28;19913;-72
2022/01/04 06:06:51;;;;;;;;;;;;;;;6.25;100.00;99396.25;5009245;28;19917;-71
2022/01/04 06:09:25;;;;;;;;;;;;;;;6.24;100.00;99397.25;5009725;28;19913;-71
2022/01/04 06:17:02;;;;;;;;;;;;;;;6.25;100.00;99365.00;4988815;28;19923;-71
2022/01/04 06:19:28;;;;;;;;;;;;;;;6.25;100.00;99365.00;5007052;28;20275;-71
2022/01/04 06:21:53;;;;;;;;;;;;;;;6.17;100.00;99377.97;5003106;28;20405;-72
2022/01/04 06:24:19;;;;;;;;;;;;;;;6.16;100.00;99371.97;5023718;28;20480;-71
2022/01/04 06:26:44;;;;;;;;;;;;;;;6.19;100.00;99365.63;5021896;28;19979;-71
2022/01/04 06:29:11;;;;;;;;;;;;;;;6.22;100.00;99357.53;5013631;28;19921;-72
2022/01/04 06:31:38;;;;;;;;;;;;;;;6.18;100.00;99358.81;5018620;28;20401;-72
2022/01/04 06:34:04;;;;;;;;;;;;;;;6.19;100.00;99369.03;5028801;28;20654;-72
2022/01/04 06:36:30;;;;;;;;;;;;;;;6.21;100.00;99359.28;5015575;28;19927;-72
2022/01/04 06:38:55;;;;;;;;;;;;;;;6.24;100.00;99353.78;5019860;28;19963;-71
2022/01/04 06:41:21;;;;;;;;;;;;;;;6.26;100.00;99345.03;4992703;28;20214;-71
2022/01/04 06:43:47;;;;;;;;;;;;;;;6.35;100.00;99341.50;5024147;28;19917;-72
2022/01/04 06:46:13;;;;;;;;;;;;;;;6.27;100.00;99354.44;5026743;28;19917;-73
2022/01/04 06:48:42;;;;;;;;;;;;;;;6.35;100.00;99354.53;5038131;28;19920;-72
2022/01/04 06:51:08;;;;;;;;;;;;;;;6.36;100.00;99349.13;5001658;28;19917;-73
2022/01/04 06:53:33;;;;;;;;;;;;;;;6.30;100.00;99356.75;5032771;28;19921;-72
2022/01/04 06:55:59;;;;;;;;;;;;;;;6.34;100.00;99338.06;4992302;28;19920;-72
2022/01/04 06:58:25;;;;;;;;;;;;;;;6.34;100.00;99335.44;5004709;28;19917;-71
2022/01/04 07:00:50;;;;;;;;;;;;;;;6.25;100.00;99336.38;5014185;28;19967;-71
2022/01/04 07:03:16;;;;;;;;;;;;;;;6.24;100.00;99340.78;5020051;28;19916;-72
2022/01/04 07:05:42;;;;;;;;;;;;;;;6.23;100.00;99339.16;5012569;28;20350;-73
2022/01/04 07:08:07;;;;;;;;;;;;;;;6.23;100.00;99328.72;5026161;28;19917;-73
2022/01/04 07:10:33;;;;;;;;;;;;;;;6.26;100.00;99332.81;5029010;28;20418;-72
2022/01/04 07:12:59;;;;;;;;;;;;;;;6.29;100.00;99334.28;5018738;28;19928;-72
2022/01/04 07:15:24;;;;;;;;;;;;;;;6.28;100.00;99332.66;5032852;28;19932;-72
2022/01/04 07:17:49;;;;;;;;;;;;;;;6.33;100.00;99326.03;5011904;28;19916;-73
2022/01/04 07:20:15;;;;;;;;;;;;;;;6.34;100.00;99313.81;5021052;28;19922;-71
2022/01/04 07:22:41;;;;;;;;;;;;;;;6.36;100.00;99324.88;4968628;28;20438;-71
2022/01/04 07:25:06;;;;;;;;;;;;;;;6.32;100.00;99320.97;5045556;28;19952;-73
2022/01/04 07:27:32;;;;;;;;;;;;;;;6.35;100.00;99318.06;5011705;28;19917;-71
2022/01/04 07:29:57;;;;;;;;;;;;;;;6.36;100.00;99317.06;5020943;28;19913;-71
2022/01/04 07:32:23;;;;;;;;;;;;;;;6.33;100.00;99319.97;5016711;28;19924;-71
2022/01/04 07:34:48;;;;;;;;;;;;;;;6.30;100.00;99322.91;5014857;28;19920;-72
2022/01/04 07:37:14;;;;;;;;;;;;;;;6.35;100.00;99325.88;4989064;28;20008;-71
2022/01/04 07:39:39;;;;;;;;;;;;;;;6.35;100.00;99311.06;5019195;28;20019;-71
2022/01/04 07:42:05;;;;;;;;;;;;;;;6.40;100.00;99321.00;5013024;28;19917;-71
2022/01/04 07:44:33;;;;;;;;;;;;;;;6.43;100.00;99323.31;5008721;28;19921;-71
2022/01/04 07:46:59;;;;;;;;;;;;;;;6.41;100.00;99313.03;5031393;28;19928;-71
2022/01/04 07:49:25;;;;;;;;;;;;;;;6.40;100.00;99310.59;4975247;28;19917;-71
2022/01/04 07:51:51;;;;;;;;;;;;;;;6.43;100.00;99318.09;5018415;28;19924;-71
2022/01/04 07:54:17;;;;;;;;;;;;;;;6.42;100.00;99317.28;5014891;28;20051;-71
2022/01/04 07:56:42;;;;;;;;;;;;;;;6.40;100.00;99316.63;5012479;28;19932;-72
2022/01/04 07:59:08;;;;;;;;;;;;;;;6.46;100.00;99312.59;5007683;28;20354;-71
2022/01/04 08:01:33;;;;;;;;;;;;;;;6.50;100.00;99311.31;5020297;28;19921;-73
2022/01/04 08:04:00;;;;;;;;;;;;;;;6.53;100.00;99303.16;5000637;28;19917;-71
2022/01/04 08:06:26;;;;;;;;;;;;;;;6.55;100.00;99303.81;5025272;28;20376;-72
2022/01/04 08:08:51;;;;;;;;;;;;;;;6.57;100.00;99304.50;5030093;28;20676;-72
2022/01/04 08:11:18;;;;;;;;;;;;;;;6.53;100.00;99312.78;5015822;28;19916;-72
2022/01/04 08:13:44;;;;;;;;;;;;;;;6.54;100.00;99301.41;5008081;28;19916;-71
2022/01/04 08:16:09;;;;;;;;;;;;;;;6.55;100.00;99292.59;5017185;28;19917;-71
2022/01/04 08:18:35;;;;;;;;;;;;;;;6.50;100.00;99293.06;5010567;28;19923;-71
2022/01/04 08:21:03;;;;;;;;;;;;;;;6.43;100.00;99285.03;5026271;28;19920;-73
2022/01/04 08:23:30;;;;;;;;;;;;;;;6.46;100.00;99276.13;5006887;28;19924;-71
2022/01/04 08:25:56;;;;;;;;;;;;;;;6.43;100.00;99277.22;5019007;28;19917;-72
2022/01/04 08:28:22;;;;;;;;;;;;;;;6.43;100.00;99271.22;5028871;28;19971;-71
2022/01/04 08:30:47;;;;;;;;;;;;;;;6.43;100.00;99274.63;5024471;28;20035;-71
2022/01/04 08:33:13;;;;;;;;;;;;;;;6.52;100.00;99274.69;5023758;28;19916;-73
2022/01/04 08:35:39;;;;;;;;;;;;;;;6.55;100.00;99267.34;5018154;28;19924;-71
2022/01/04 08:38:08;;;;;;;;;;;;;;;6.55;100.00;99269.13;4993488;28;19921;-73
2022/01/04 08:40:34;;;;;;;;;;;;;;;6.55;100.00;99261.31;5031618;28;19927;-71
2022/01/04 08:43:00;;;;;;;;;;;;;;;6.50;100.00;99259.22;5013247;28;19917;-71
2022/01/04 08:45:26;;;;;;;;;;;;;;;6.47;100.00;99254.28;5013953;28;19917;-73
2022/01/04 08:47:52;;;;;;;;;;;;;;;6.43;100.00;99252.97;5029383;28;19955;-71
2022/01/04 08:50:18;;;;;;;;;;;;;;;6.39;100.00;99236.84;5023655;28;19999;-71
2022/01/04 08:52:43;;;;;;;;;;;;;;;6.42;100.00;99231.34;5017448;28;20032;-70
2022/01/04 08:55:09;;;;;;;;;;;;;;;6.46;100.00;99236.22;5014761;28;20019;-70
2022/01/04 08:57:35;;;;;;;;;;;;;;;6.42;100.00;99246.97;4995030;28;20062;-72
2022/01/04 09:00:01;;;;;;;;;;;;;;;6.39;100.00;99243.84;5004931;28;20436;-72
2022/01/04 09:02:27;;;;;;;;;;;;;;;6.45;100.00;99245.81;5009959;28;19949;-71
2022/01/04 09:04:52;;;;;;;;;;;;;;;6.40;100.00;99230.69;5018571;28;20015;-72
2022/01/04 09:07:18;;;;;;;;;;;;;;;6.42;100.00;99236.53;5025582;28;19927;-71
2022/01/04 09:09:44;;;;;;;;;;;;;;;6.44;100.00;99225.94;5015445;28;19921;-72
2022/01/04 09:12:11;;;;;;;;;;;;;;;6.52;100.00;99227.78;5028731;28;19921;-71
2022/01/04 09:14:55;;;;;;;;;;;;;;;6.54;100.00;99221.44;5015966;28;19917;-70
2022/01/04 09:20:08;;;;;;;;;;;;;;;6.58;100.00;99214.13;4992382;28;19913;-72
2022/01/04 09:22:33;;;;;;;;;;;;;;;6.61;100.00;99213.78;5015481;28;19960;-71
2022/01/04 09:24:59;;;;;;;;;;;;;;;6.61;100.00;99204.22;5006808;28;19955;-72
2022/01/04 09:27:24;;;;;;;;;;;;;;;6.63;100.00;99198.84;5007625;28;19924;-71
2022/01/04 09:29:50;;;;;;;;;;;;;;;6.67;100.00;99207.13;5018888;28;20311;-71
2022/01/04 09:32:17;;;;;;;;;;;;;;;6.72;100.00;99205.69;4998186;28;19921;-70
2022/01/04 09:34:43;;;;;;;;;;;;;;;6.77;100.00;99213.84;5024118;28;19921;-71
2022/01/04 09:37:08;;;;;;;;;;;;;;;6.76;100.00;99200.97;5015225;28;19917;-71
2022/01/04 09:39:34;;;;;;;;;;;;;;;6.81;100.00;99204.72;5011603;28;20455;-71
2022/01/04 09:42:00;;;;;;;;;;;;;;;6.85;100.00;99207.84;5014001;28;19921;-72
2022/01/04 09:44:27;;;;;;;;;;;;;;;6.88;100.00;99198.91;5022708;28;19963;-73
2022/01/04 09:46:53;;;;;;;;;;;;;;;6.89;100.00;99197.91;5019198;28;19974;-70
2022/01/04 09:49:19;;;;;;;;;;;;;;;6.90;100.00;99204.78;5022193;28;20008;-71
2022/01/04 09:51:45;;;;;;;;;;;;;;;6.87;100.00;99205.88;5016790;28;20008;-71
2022/01/04 09:54:11;;;;;;;;;;;;;;;6.88;100.00;99215.34;5023981;28;19928;-72
2022/01/04 09:56:37;;;;;;;;;;;;;;;6.89;100.00;99219.56;5013080;28;19925;-71
2022/01/04 09:59:02;;;;;;;;;;;;;;;6.89;100.00;99216.16;5021744;28;19913;-70
2022/01/04 10:01:34;;;;;;;;;;;;;;;6.91;100.00;99212.44;5015965;28;19913;-71
2022/01/04 10:04:00;;;;;;;;;;;;;;;6.90;100.00;99212.59;5030034;28;19917;-72
2022/01/04 10:06:26;;;;;;;;;;;;;;;6.99;100.00;99206.41;5027029;28;19996;-72
2022/01/04 10:08:56;;;;;;;;;;;;;;;6.94;100.00;99209.47;5002589;28;20353;-72
2022/01/04 10:11:29;;;;;;;;;;;;;;;6.96;100.00;99207.53;5010427;28;19921;-70
2022/01/04 10:13:54;;;;;;;;;;;;;;;6.99;100.00;99199.41;5023333;28;19959;-71
2022/01/04 10:16:20;;;;;;;;;;;;;;;7.05;100.00;99204.94;5018127;28;20382;-72
2022/01/04 10:18:47;;;;;;;;;;;;;;;7.04;100.00;99200.72;5012111;28;20008;-72
2022/01/04 10:21:14;;;;;;;;;;;;;;;7.07;100.00;99198.59;5004260;28;20008;-71
2022/01/04 10:23:44;;;;;;;;;;;;;;;7.11;100.00;99192.06;4997461;28;20390;-72
2022/01/04 10:26:10;;;;;;;;;;;;;;;7.10;100.00;99193.06;5020422;28;19917;-71
2022/01/04 10:28:37;;;;;;;;;;;;;;;7.10;100.00;99185.25;5030958;28;19918;-71
2022/01/04 10:31:06;;;;;;;;;;;;;;;7.14;100.00;99183.09;5015336;28;19917;-72
2022/01/04 10:33:34;;;;;;;;;;;;;;;7.00;100.00;99174.94;5032938;28;20025;-72
2022/01/04 10:36:01;;;;;;;;;;;;;;;6.99;100.00;99178.53;5013514;28;19920;-71
2022/01/04 10:38:28;;;;;;;;;;;;;;;7.00;100.00;99167.13;5020736;28;20286;-72
2022/01/04 10:40:58;;;;;;;;;;;;;;;7.01;100.00;99167.97;5026045;28;20409;-71
2022/01/04 10:43:25;;;;;;;;;;;;;;;7.05;100.00;99160.63;5025927;28;19917;-72
2022/01/04 10:45:51;;;;;;;;;;;;;;;7.00;100.00;99161.91;5017297;28;19939;-72
2022/01/04 10:48:19;;;;;;;;;;;;;;;7.08;100.00;99157.69;5017690;28;20738;-72
2022/01/04 10:50:47;;;;;;;;;;;;;;;7.08;100.00;99165.50;5018887;28;19913;-72
2022/01/04 10:53:14;;;;;;;;;;;;;;;7.08;100.00;99153.28;5027554;28;19917;-71
2022/01/04 10:55:39;;;;;;;;;;;;;;;7.09;100.00;99141.06;5020531;28;19938;-71
2022/01/04 10:58:05;;;;;;;;;;;;;;;7.05;100.00;99150.22;5019496;28;20355;-71
2022/01/04 11:00:31;;;;;;;;;;;;;;;7.06;100.00;99139.59;5019233;28;19927;-71
2022/01/04 11:03:02;;;;;;;;;;;;;;;7.00;100.00;99127.22;5042244;28;19979;-72
2022/01/04 11:05:28;;;;;;;;;;;;;;;7.00;100.00;99119.38;5023015;28;19917;-71
2022/01/04 11:08:01;;;;;;;;;;;;;;;7.02;100.00;99120.84;5020911;28;19920;-71
2022/01/04 11:10:29;;;;;;;;;;;;;;;6.94;100.00;99115.66;5041031;28;20000;-71
2022/01/04 11:12:55;;;;;;;;;;;;;;;6.83;100.00;99114.16;5029962;28;20004;-71
2022/01/04 11:15:21;;;;;;;;;;;;;;;6.80;100.00;99106.69;5024864;28;20985;-71
2022/01/04 11:17:47;;;;;;;;;;;;;;;6.81;100.00;99105.69;5027768;28;20416;-72
2022/01/04 11:20:12;;;;;;;;;;;;;;;6.80;100.00;99100.66;5036382;28;19912;-72
2022/01/04 11:22:40;;;;;;;;;;;;;;;6.76;100.00;99109.75;5020093;28;19917;-72
2022/01/04 11:25:06;;;;;;;;;;;;;;;6.71;100.00;99107.66;4998945;28;19940;-72
2022/01/04 11:27:34;;;;;;;;;;;;;;;6.73;100.00;99117.94;5021710;28;20401;-72
2022/01/04 11:30:01;;;;;;;;;;;;;;;6.63;100.00;99112.88;5026448;28;19917;-72
2022/01/04 11:32:28;;;;;;;;;;;;;;;6.59;100.00;99117.59;5004868;28;19917;-71
2022/01/04 11:34:56;;;;;;;;;;;;;;;6.42;100.00;99110.69;4980075;28;19920;-71
2022/01/04 11:37:22;;;;;;;;;;;;;;;6.39;100.00;99106.63;4978873;28;20035;-72
2022/01/04 11:39:48;;;;;;;;;;;;;;;6.35;100.00;99109.72;5019337;28;19924;-72
2022/01/04 11:42:35;;;;;;;;;;;;;;;6.36;100.00;99106.13;5000795;28;19921;-71
2022/01/04 11:45:01;;;;;;;;;;;;;;;6.31;100.00;99104.00;5010964;28;19924;-71
2022/01/04 11:47:28;;;;;;;;;;;;;;;6.36;100.00;99103.53;5012927;28;19920;-71
2022/01/04 11:50:05;;;;;;;;;;;;;;;6.29;100.00;99100.75;5027351;28;20263;-71
2022/01/04 11:52:37;;;;;;;;;;;;;;;6.32;100.00;99100.41;5029461;28;20298;-72
2022/01/04 11:55:18;;;;;;;;;;;;;;;6.26;100.00;99101.06;5007795;28;19928;-70
2022/01/04 11:57:43;;;;;;;;;;;;;;;6.18;100.00;99095.84;5017152;28;19932;-72
2022/01/04 12:00:09;;;;;;;;;;;;;;;6.23;100.00;99090.97;5023154;28;20369;-71
2022/01/04 12:02:41;;;;;;;;;;;;;;;6.22;100.00;99097.16;5026515;28;19917;-71
2022/01/04 12:05:33;;;;;;;;;;;;;;;6.17;100.00;99089.00;4979380;28;20314;-71
2022/01/04 12:08:00;;;;;;;;;;;;;;;6.23;100.00;99081.38;5012626;28;20374;-71
2022/01/04 12:10:25;;;;;;;;;;;;;;;6.31;100.00;99087.56;4992386;28;19956;-70
2022/01/04 12:12:54;;;;;;;;;;;;;;;6.21;100.00;99087.69;5028304;28;20016;-70
2022/01/04 12:15:35;;;;;;;;;;;;;;;6.20;100.00;99083.47;5006734;28;19924;-71
2022/01/04 12:18:01;;;;;;;;;;;;;;;6.12;100.00;99079.06;5022330;28;19996;-72
2022/01/04 12:20:47;;;;;;;;;;;;;;;6.15;100.00;99070.94;5024848;28;19913;-73
2022/01/04 12:23:21;;;;;;;;;;;;;;;6.00;100.00;99078.53;5032498;28;19939;-73
2022/01/04 12:26:02;;;;;;;;;;;;;;;5.98;100.00;99070.06;5019121;28;19917;-72
2022/01/04 12:28:29;;;;;;;;;;;;;;;5.93;100.00;99072.28;5009548;28;20255;-71
2022/01/04 12:31:20;;;;;;;;;;;;;;;5.87;100.00;99075.53;5017146;28;19917;-71
2022/01/04 12:33:47;;;;;;;;;;;;;;;5.89;100.00;99081.38;5006424;28;20015;-73
2022/01/04 12:36:45;;;;;;;;;;;;;;;5.93;100.00;99080.09;5017330;28;20270;-71
2022/01/04 12:39:16;;;;;;;;;;;;;;;5.87;100.00;99091.13;4992756;28;19967;-71
2022/01/04 12:41:42;;;;;;;;;;;;;;;5.88;100.00;99089.34;5019062;28;19917;-73
2022/01/04 12:44:08;;;;;;;;;;;;;;;5.84;100.00;99101.88;5010611;28;19913;-72
2022/01/04 12:46:35;;;;;;;;;;;;;;;5.74;100.00;99096.75;5030651;28;19927;-73
2022/01/04 12:49:02;;;;;;;;;;;;;;;5.70;100.00;99094.63;5014518;28;19971;-72
2022/01/04 12:51:32;;;;;;;;;;;;;;;5.73;100.00;99105.56;5010271;28;19996;-72
2022/01/04 12:53:59;;;;;;;;;;;;;;;5.76;100.00;99100.03;5017937;28;20405;-71